createdAt,value
2018-04-15T00:02:24.590Z,12.80
2018-04-15T00:04:52.167Z,12.80
2018-04-15T00:07:19.819Z,12.80
2018-04-15T00:09:47.474Z,12.80
2018-04-15T00:12:15.175Z,12.90
2018-04-15T00:14:43.199Z,12.90
2018-04-15T00:17:11.217Z,12.90
2018-04-15T00:19:39.801Z,13.00
2018-04-15T00:22:08.368Z,13.00
2018-04-15T00:24:36.929Z,12.90
2018-04-15T00:27:04.567Z,12.90
2018-04-15T00:29:32.251Z,12.90
2018-04-15T00:32:00.054Z,12.90
2018-04-15T00:34:27.751Z,12.90
2018-04-15T00:36:55.272Z,12.90
2018-04-15T00:39:22.999Z,13.00
2018-04-15T00:41:51.576Z,12.90
2018-04-15T00:44:19.405Z,12.90
2018-04-15T00:46:47.107Z,12.90
2018-04-15T00:49:15.065Z,12.90
2018-04-15T00:51:42.756Z,12.90
2018-04-15T00:54:17.359Z,12.90
2018-04-15T00:56:44.894Z,12.90
2018-04-15T00:59:12.688Z,12.90
2018-04-15T01:01:40.513Z,12.90
2018-04-15T01:04:08.239Z,12.80
2018-04-15T01:06:36.111Z,12.80
2018-04-15T01:09:03.795Z,12.80
2018-04-15T01:11:31.450Z,12.80
2018-04-15T01:14:00.092Z,12.70
2018-04-15T01:16:27.807Z,12.70
2018-04-15T01:18:56.282Z,12.60
2018-04-15T01:21:24.693Z,12.60
2018-04-15T01:23:52.337Z,12.50
2018-04-15T01:26:20.023Z,12.60
2018-04-15T01:28:47.626Z,12.50
2018-04-15T01:31:15.315Z,12.50
2018-04-15T01:33:42.925Z,12.50
2018-04-15T01:36:10.683Z,12.40
2018-04-15T01:38:38.457Z,12.40
2018-04-15T01:41:06.285Z,12.40
2018-04-15T01:43:34.096Z,12.30
2018-04-15T01:46:01.694Z,12.30
2018-04-15T01:48:29.316Z,12.30
2018-04-15T01:50:57.063Z,12.20
2018-04-15T01:53:24.736Z,12.20
2018-04-15T01:55:52.511Z,12.20
2018-04-15T01:58:20.301Z,12.10
2018-04-15T02:00:48.022Z,12.10
2018-04-15T02:03:15.607Z,12.10
2018-04-15T02:05:43.252Z,12.10
2018-04-15T02:08:10.890Z,12.10
2018-04-15T02:10:38.449Z,12.00
2018-04-15T02:13:06.096Z,12.00
2018-04-15T02:15:34.427Z,11.90
2018-04-15T02:18:02.067Z,11.90
2018-04-15T02:20:29.676Z,11.90
2018-04-15T02:22:58.030Z,11.90
2018-04-15T02:25:25.780Z,11.80
2018-04-15T02:27:53.509Z,11.80
2018-04-15T02:30:21.106Z,11.80
2018-04-15T02:32:48.719Z,11.80
2018-04-15T02:35:16.503Z,11.70
2018-04-15T02:37:44.328Z,11.60
2018-04-15T02:40:12.890Z,11.40
2018-04-15T02:42:40.562Z,11.40
2018-04-15T02:45:08.347Z,11.40
2018-04-15T02:47:36.824Z,11.30
2018-04-15T02:50:05.399Z,11.20
2018-04-15T02:52:33.134Z,11.20
2018-04-15T02:55:00.791Z,11.20
2018-04-15T02:57:28.352Z,11.10
2018-04-15T02:59:55.957Z,11.10
2018-04-15T03:02:23.606Z,11.00
2018-04-15T03:04:51.316Z,10.90
2018-04-15T03:07:19.064Z,10.80
2018-04-15T03:09:46.688Z,10.70
2018-04-15T03:12:14.330Z,10.60
2018-04-15T03:14:42.026Z,10.60
2018-04-15T03:17:09.651Z,10.50
2018-04-15T03:19:37.182Z,10.50
2018-04-15T03:22:04.942Z,10.40
2018-04-15T03:24:32.673Z,10.50
2018-04-15T03:27:01.746Z,10.40
2018-04-15T03:29:30.179Z,10.30
2018-04-15T03:31:57.815Z,10.40
2018-04-15T03:34:26.272Z,10.40
2018-04-15T03:36:53.893Z,10.40
2018-04-15T03:39:21.564Z,10.40
2018-04-15T03:41:49.337Z,10.40
2018-04-15T03:44:17.047Z,10.40
2018-04-15T03:46:45.603Z,10.30
2018-04-15T03:49:14.146Z,10.30
2018-04-15T03:51:41.721Z,10.30
2018-04-15T03:54:09.356Z,10.30
2018-04-15T03:56:37.063Z,10.20
2018-04-15T03:59:04.641Z,10.20
2018-04-15T04:01:32.364Z,10.20
2018-04-15T04:04:00.131Z,10.20
2018-04-15T04:06:27.913Z,10.20
2018-04-15T04:08:55.567Z,10.10
2018-04-15T04:11:23.333Z,10.20
2018-04-15T04:13:51.101Z,10.20
2018-04-15T04:16:18.936Z,10.10
2018-04-15T04:18:58.813Z,10.10
2018-04-15T04:21:38.457Z,10.10
2018-04-15T04:24:19.677Z,10.10
2018-04-15T04:26:47.388Z,10.00
2018-04-15T04:29:16.004Z,10.10
2018-04-15T04:31:43.991Z,10.10
2018-04-15T04:34:11.759Z,10.10
2018-04-15T04:36:40.389Z,10.20
2018-04-15T04:39:08.183Z,10.10
2018-04-15T04:41:36.388Z,10.20
2018-04-15T04:44:04.976Z,10.20
2018-04-15T04:46:32.789Z,10.10
2018-04-15T04:49:00.423Z,10.20
2018-04-15T04:51:28.022Z,10.20
2018-04-15T04:53:55.592Z,10.20
2018-04-15T04:56:23.309Z,10.30
2018-04-15T04:58:50.869Z,10.30
2018-04-15T05:01:18.677Z,10.30
2018-04-15T05:03:46.506Z,10.30
2018-04-15T05:06:14.198Z,10.30
2018-04-15T05:08:41.757Z,10.30
2018-04-15T05:11:10.222Z,10.40
2018-04-15T05:13:38.009Z,10.30
2018-04-15T05:16:05.787Z,10.40
2018-04-15T05:18:33.466Z,10.40
2018-04-15T05:21:01.129Z,10.50
2018-04-15T05:23:28.929Z,10.50
2018-04-15T05:25:56.484Z,10.60
2018-04-15T05:28:24.090Z,10.60
2018-04-15T05:30:51.864Z,10.60
2018-04-15T05:33:19.721Z,10.70
2018-04-15T05:35:47.589Z,10.70
2018-04-15T05:38:15.315Z,10.80
2018-04-15T05:40:43.163Z,10.80
2018-04-15T05:43:12.009Z,10.90
2018-04-15T05:45:39.800Z,10.90
2018-04-15T05:48:07.691Z,10.90
2018-04-15T05:50:35.507Z,11.00
2018-04-15T05:53:03.765Z,11.00
2018-04-15T05:55:31.630Z,11.10
2018-04-15T05:57:59.460Z,11.10
2018-04-15T06:00:27.247Z,11.20
2018-04-15T06:02:54.827Z,11.20
2018-04-15T06:05:22.392Z,11.30
2018-04-15T06:07:49.907Z,11.40
2018-04-15T06:10:18.215Z,11.50
2018-04-15T06:12:45.735Z,11.40
2018-04-15T06:15:13.284Z,11.50
2018-04-15T06:17:41.290Z,11.60
2018-04-15T06:20:08.844Z,11.60
2018-04-15T06:22:36.625Z,11.70
2018-04-15T06:25:04.296Z,11.70
2018-04-15T06:27:32.074Z,11.80
2018-04-15T06:29:59.853Z,11.90
2018-04-15T06:32:27.708Z,12.00
2018-04-15T06:34:55.597Z,12.10
2018-04-15T06:37:23.245Z,12.20
2018-04-15T06:39:50.953Z,12.30
2018-04-15T06:42:18.770Z,12.30
2018-04-15T06:44:46.523Z,12.40
2018-04-15T06:47:14.389Z,12.50
2018-04-15T06:49:42.238Z,12.60
2018-04-15T06:52:10.035Z,12.70
2018-04-15T06:54:38.671Z,12.90
2018-04-15T06:57:06.428Z,12.90
2018-04-15T06:59:34.080Z,13.00
2018-04-15T07:02:01.832Z,13.10
2018-04-15T07:04:29.632Z,13.20
2018-04-15T07:06:57.440Z,13.30
2018-04-15T07:09:25.193Z,13.40
2018-04-15T07:11:52.853Z,13.50
2018-04-15T07:14:20.562Z,13.60
2018-04-15T07:16:48.822Z,13.70
2018-04-15T07:19:17.215Z,13.90
2018-04-15T07:21:44.988Z,13.90
2018-04-15T07:24:12.748Z,14.10
2018-04-15T07:26:40.435Z,14.20
2018-04-15T07:29:08.297Z,14.40
2018-04-15T07:31:36.204Z,14.50
2018-04-15T07:34:03.868Z,14.60
2018-04-15T07:36:31.709Z,14.70
2018-04-15T07:39:00.179Z,14.90
2018-04-15T07:41:27.890Z,14.80
2018-04-15T07:43:55.564Z,15.00
2018-04-15T07:46:23.364Z,15.00
2018-04-15T07:48:51.768Z,15.10
2018-04-15T07:51:19.548Z,15.30
2018-04-15T07:53:47.372Z,15.40
2018-04-15T07:56:15.317Z,15.50
2018-04-15T07:58:43.181Z,15.60
2018-04-15T08:01:10.931Z,15.70
2018-04-15T08:03:38.833Z,15.80
2018-04-15T08:06:06.639Z,15.90
2018-04-15T08:08:34.456Z,16.00
2018-04-15T08:11:02.917Z,16.10
2018-04-15T08:13:30.747Z,16.30
2018-04-15T08:15:58.416Z,16.30
2018-04-15T08:18:26.269Z,16.50
2018-04-15T08:20:54.015Z,16.50
2018-04-15T08:23:21.795Z,16.60
2018-04-15T08:25:49.375Z,16.70
2018-04-15T08:28:17.019Z,16.70
2018-04-15T08:30:44.745Z,16.80
2018-04-15T08:33:12.511Z,16.90
2018-04-15T08:35:40.280Z,17.00
2018-04-15T08:38:08.773Z,17.10
2018-04-15T08:40:36.517Z,17.10
2018-04-15T08:43:04.941Z,17.30
2018-04-15T08:45:32.664Z,17.20
2018-04-15T08:48:00.427Z,17.40
2018-04-15T08:50:28.389Z,17.50
2018-04-15T08:52:56.251Z,17.60
2018-04-15T08:55:24.093Z,17.70
2018-04-15T08:57:51.803Z,17.70
2018-04-15T09:00:19.625Z,17.80
2018-04-15T09:02:47.441Z,17.90
2018-04-15T09:05:15.243Z,18.00
2018-04-15T09:07:43.013Z,18.00
2018-04-15T09:10:11.493Z,18.20
2018-04-15T09:12:39.209Z,18.20
2018-04-15T09:15:07.086Z,18.40
2018-04-15T09:17:37.348Z,18.50
2018-04-15T09:20:04.976Z,18.80
2018-04-15T09:22:32.646Z,19.00
2018-04-15T09:25:00.432Z,19.20
2018-04-15T09:27:28.363Z,19.40
2018-04-15T09:29:56.170Z,19.50
2018-04-15T09:32:23.980Z,19.70
2018-04-15T09:34:51.532Z,19.80
2018-04-15T09:37:19.873Z,20.10
2018-04-15T09:39:47.401Z,20.10
2018-04-15T09:42:14.966Z,20.30
2018-04-15T09:44:42.504Z,20.40
2018-04-15T09:47:10.067Z,20.50
2018-04-15T09:49:37.905Z,20.60
2018-04-15T09:52:05.496Z,20.60
2018-04-15T09:54:33.008Z,20.50
2018-04-15T09:57:00.511Z,20.40
2018-04-15T09:59:28.047Z,20.30
2018-04-15T10:01:55.566Z,20.30
2018-04-15T10:04:23.100Z,20.20
2018-04-15T10:06:50.610Z,20.20
2018-04-15T10:09:18.724Z,20.10
2018-04-15T10:11:46.231Z,20.10
2018-04-15T10:14:13.779Z,20.10
2018-04-15T10:16:41.316Z,20.10
2018-04-15T10:19:08.859Z,20.10
2018-04-15T10:21:36.363Z,20.10
2018-04-15T10:24:04.087Z,20.10
2018-04-15T10:26:32.514Z,20.20
2018-04-15T10:29:00.312Z,20.20
2018-04-15T10:31:28.054Z,20.20
2018-04-15T10:33:55.903Z,20.20
2018-04-15T10:36:23.710Z,20.30
2018-04-15T10:38:51.671Z,20.30
2018-04-15T10:41:19.578Z,20.30
2018-04-15T10:43:47.390Z,20.30
2018-04-15T10:46:15.044Z,20.40
2018-04-15T10:48:42.655Z,20.40
2018-04-15T10:51:10.253Z,20.50
2018-04-15T10:53:37.790Z,20.60
2018-04-15T10:56:05.396Z,20.60
2018-04-15T10:58:33.136Z,20.70
2018-04-15T11:01:00.731Z,20.80
2018-04-15T11:03:28.263Z,20.80
2018-04-15T11:05:55.834Z,20.80
2018-04-15T11:08:23.354Z,20.90
2018-04-15T11:10:50.958Z,20.90
2018-04-15T11:13:18.472Z,21.00
2018-04-15T11:15:46.035Z,21.10
2018-04-15T11:18:13.758Z,21.10
2018-04-15T11:20:41.329Z,21.10
2018-04-15T11:23:09.609Z,21.10
2018-04-15T11:25:37.280Z,21.00
2018-04-15T11:28:05.003Z,21.10
2018-04-15T11:30:32.811Z,21.10
2018-04-15T11:33:00.471Z,21.10
2018-04-15T11:35:28.100Z,21.30
2018-04-15T11:37:55.735Z,21.40
2018-04-15T11:40:23.380Z,21.60
2018-04-15T11:42:51.290Z,21.70
2018-04-15T11:45:19.172Z,21.80
2018-04-15T11:47:46.913Z,21.90
2018-04-15T11:50:14.908Z,22.00
2018-04-15T11:52:42.602Z,22.20
2018-04-15T11:55:10.494Z,22.40
2018-04-15T11:57:38.217Z,22.70
2018-04-15T12:00:05.939Z,22.80
2018-04-15T12:02:34.547Z,23.00
2018-04-15T12:05:02.384Z,23.00
2018-04-15T12:07:30.323Z,23.10
2018-04-15T12:09:58.018Z,23.30
2018-04-15T12:12:26.596Z,23.40
2018-04-15T12:14:54.289Z,23.30
2018-04-15T12:17:21.997Z,23.40
2018-04-15T12:19:49.698Z,23.50
2018-04-15T12:22:18.166Z,23.60
2018-04-15T12:24:45.910Z,23.50
2018-04-15T12:27:13.719Z,23.70
2018-04-15T12:29:42.416Z,23.70
2018-04-15T12:32:10.151Z,23.60
2018-04-15T12:34:38.617Z,23.70
2018-04-15T12:37:06.354Z,23.60
2018-04-15T12:39:34.019Z,23.60
2018-04-15T12:42:01.574Z,23.60
2018-04-15T12:44:29.108Z,23.60
2018-04-15T12:46:56.657Z,23.50
2018-04-15T12:49:24.304Z,23.50
2018-04-15T12:51:51.845Z,23.50
2018-04-15T12:54:19.354Z,23.60
2018-04-15T12:56:46.902Z,23.80
2018-04-15T12:59:15.196Z,24.20
2018-04-15T13:01:42.757Z,24.20
2018-04-15T13:04:10.274Z,24.50
2018-04-15T13:06:37.863Z,24.70
2018-04-15T13:09:06.142Z,24.70
2018-04-15T13:11:33.693Z,24.60
2018-04-15T13:14:01.999Z,24.60
2018-04-15T13:16:29.533Z,24.50
2018-04-15T13:18:57.069Z,24.60
2018-04-15T13:21:24.612Z,24.60
2018-04-15T13:23:52.139Z,24.70
2018-04-15T13:26:19.687Z,24.70
2018-04-15T13:28:47.233Z,24.60
2018-04-15T13:31:14.747Z,24.50
2018-04-15T13:33:42.285Z,24.40
2018-04-15T13:36:09.792Z,24.30
2018-04-15T13:38:37.339Z,24.30
2018-04-15T13:41:04.861Z,24.30
2018-04-15T13:43:32.419Z,24.20
2018-04-15T13:45:59.973Z,24.10
2018-04-15T13:48:27.521Z,24.10
2018-04-15T13:50:55.050Z,23.90
2018-04-15T13:53:22.598Z,23.90
2018-04-15T13:55:50.114Z,23.80
2018-04-15T13:58:17.677Z,23.80
2018-04-15T14:00:45.287Z,23.70
2018-04-15T14:03:13.991Z,23.60
2018-04-15T14:05:41.592Z,23.50
2018-04-15T14:08:09.065Z,23.50
2018-04-15T14:10:36.629Z,23.40
2018-04-15T14:13:06.225Z,23.30
2018-04-15T14:15:33.769Z,23.20
2018-04-15T14:18:01.313Z,23.20
2018-04-15T14:20:28.869Z,23.20
2018-04-15T14:22:56.409Z,23.20
2018-04-15T14:25:23.959Z,23.20
2018-04-15T14:27:52.243Z,23.00
2018-04-15T14:30:20.561Z,23.00
2018-04-15T14:32:48.841Z,23.00
2018-04-15T14:35:17.170Z,23.00
2018-04-15T14:37:45.445Z,23.00
2018-04-15T14:40:12.999Z,22.90
2018-04-15T14:42:40.511Z,22.90
2018-04-15T14:45:08.079Z,22.70
2018-04-15T14:47:35.634Z,22.70
2018-04-15T14:50:03.542Z,22.70
2018-04-15T14:52:31.827Z,22.60
2018-04-15T14:55:00.143Z,22.50
2018-04-15T14:57:27.686Z,22.50
2018-04-15T14:59:55.205Z,22.50
2018-04-15T15:02:22.767Z,22.40
2018-04-15T15:04:50.294Z,22.40
2018-04-15T15:07:17.975Z,22.30
2018-04-15T15:09:45.489Z,22.30
2018-04-15T15:12:13.043Z,22.30
2018-04-15T15:14:40.565Z,22.30
2018-04-15T15:17:08.191Z,22.30
2018-04-15T15:19:35.761Z,22.20
2018-04-15T15:22:03.274Z,22.30
2018-04-15T15:24:31.557Z,22.30
2018-04-15T15:26:59.147Z,22.20
2018-04-15T15:29:26.660Z,22.30
2018-04-15T15:31:55.009Z,22.10
2018-04-15T15:34:22.519Z,22.10
2018-04-15T15:36:50.088Z,22.10
2018-04-15T15:39:18.118Z,22.00
2018-04-15T15:41:45.639Z,21.90
2018-04-15T15:44:13.185Z,21.80
2018-04-15T15:46:40.692Z,21.80
2018-04-15T15:49:08.249Z,21.70
2018-04-15T15:51:35.752Z,21.70
2018-04-15T15:54:03.307Z,21.70
2018-04-15T15:56:30.830Z,21.60
2018-04-15T15:58:58.386Z,21.50
2018-04-15T16:01:25.906Z,21.50
2018-04-15T16:03:53.463Z,21.50
2018-04-15T16:06:20.979Z,21.40
2018-04-15T16:08:49.301Z,21.40
2018-04-15T16:11:16.823Z,21.30
2018-04-15T16:13:44.333Z,21.40
2018-04-15T16:16:12.668Z,21.30
2018-04-15T16:18:40.241Z,21.30
2018-04-15T16:21:07.818Z,21.30
2018-04-15T16:23:35.342Z,21.30
2018-04-15T16:26:02.896Z,21.20
2018-04-15T16:28:31.189Z,21.10
2018-04-15T16:30:58.746Z,21.10
2018-04-15T16:33:26.991Z,21.10
2018-04-15T16:35:54.548Z,21.10
2018-04-15T16:38:22.053Z,21.00
2018-04-15T16:40:49.590Z,21.00
2018-04-15T16:43:17.890Z,20.90
2018-04-15T16:45:45.445Z,20.80
2018-04-15T16:48:12.966Z,20.80
2018-04-15T16:50:40.512Z,20.80
2018-04-15T16:53:08.056Z,20.70
2018-04-15T16:55:35.610Z,20.70
2018-04-15T16:58:03.149Z,20.60
2018-04-15T17:00:30.682Z,20.60
2018-04-15T17:02:58.292Z,20.60
2018-04-15T17:05:25.818Z,20.50
2018-04-15T17:07:53.401Z,20.50
2018-04-15T17:10:20.920Z,20.40
2018-04-15T17:12:49.244Z,20.40
2018-04-15T17:15:16.780Z,20.30
2018-04-15T17:17:44.322Z,20.30
2018-04-15T17:20:11.860Z,20.30
2018-04-15T17:22:39.422Z,20.20
2018-04-15T17:25:06.944Z,20.10
2018-04-15T17:27:34.499Z,20.10
2018-04-15T17:30:02.026Z,20.10
2018-04-15T17:32:29.611Z,20.00
2018-04-15T17:34:57.148Z,20.00
2018-04-15T17:37:24.718Z,19.90
2018-04-15T17:39:52.246Z,19.90
2018-04-15T17:42:20.560Z,19.80
2018-04-15T17:44:48.061Z,19.70
2018-04-15T17:47:15.617Z,19.70
2018-04-15T17:49:43.143Z,19.70
2018-04-15T17:52:10.697Z,19.60
2018-04-15T17:54:38.223Z,19.60
2018-04-15T17:57:06.551Z,19.50
2018-04-15T17:59:34.066Z,19.50
2018-04-15T18:02:02.344Z,19.50
2018-04-15T18:04:29.903Z,19.40
2018-04-15T18:06:58.204Z,19.40
2018-04-15T18:09:25.767Z,19.40
2018-04-15T18:11:53.289Z,19.40
2018-04-15T18:14:20.837Z,19.40
2018-04-15T18:16:48.376Z,19.30
2018-04-15T18:19:15.934Z,19.30
2018-04-15T18:21:43.480Z,19.30
2018-04-15T18:24:11.068Z,19.20
2018-04-15T18:26:38.555Z,19.20
2018-04-15T18:29:06.108Z,19.10
2018-04-15T18:31:33.646Z,19.10
2018-04-15T18:34:01.192Z,18.90
2018-04-15T18:36:28.720Z,18.90
2018-04-15T18:38:56.271Z,18.80
2018-04-15T18:41:23.792Z,18.80
2018-04-15T18:43:51.398Z,18.70
2018-04-15T18:46:18.914Z,18.70
2018-04-15T18:48:46.436Z,18.70
2018-04-15T18:51:14.006Z,18.60
2018-04-15T18:53:41.541Z,18.50
2018-04-15T18:56:09.119Z,18.50
2018-04-15T18:58:36.641Z,18.40
2018-04-15T19:01:04.208Z,18.40
2018-04-15T19:03:31.738Z,18.30
2018-04-15T19:05:59.331Z,18.30
2018-04-15T19:08:26.971Z,18.20
2018-04-15T19:10:54.553Z,18.20
2018-04-15T19:13:22.118Z,18.10
2018-04-15T19:15:49.689Z,18.10
2018-04-15T19:18:17.267Z,18.10
2018-04-15T19:20:44.865Z,18.00
2018-04-15T19:23:12.411Z,18.00
2018-04-15T19:25:40.035Z,18.00
2018-04-15T19:28:07.667Z,18.00
2018-04-15T19:30:35.274Z,17.90
2018-04-15T19:33:02.875Z,17.90
2018-04-15T19:35:30.439Z,17.90
2018-04-15T19:37:58.073Z,17.90
2018-04-15T19:40:25.630Z,17.90
2018-04-15T19:42:53.235Z,17.90
2018-04-15T19:45:20.782Z,17.90
2018-04-15T19:47:48.399Z,17.90
2018-04-15T19:50:15.949Z,17.90
2018-04-15T19:52:43.559Z,17.90
2018-04-15T19:55:11.111Z,17.90
2018-04-15T19:57:38.674Z,17.90
2018-04-15T20:00:06.231Z,17.90
2018-04-15T20:02:34.613Z,18.00
2018-04-15T20:05:02.199Z,18.00
2018-04-15T20:07:29.782Z,18.00
2018-04-15T20:09:57.333Z,18.00
2018-04-15T20:12:24.967Z,18.00
2018-04-15T20:14:52.529Z,18.00
2018-04-15T20:17:20.592Z,18.00
2018-04-15T20:19:48.208Z,18.00
2018-04-15T20:22:15.749Z,18.00
2018-04-15T20:24:43.376Z,18.00
2018-04-15T20:27:11.230Z,18.00
2018-04-15T20:29:38.905Z,18.00
2018-04-15T20:32:06.439Z,18.00
2018-04-15T20:34:35.305Z,17.90
2018-04-15T20:37:02.902Z,17.90
2018-04-15T20:39:30.450Z,17.90
2018-04-15T20:41:58.788Z,17.90
2018-04-15T20:44:27.014Z,17.80
2018-04-15T20:46:54.605Z,17.80
2018-04-15T20:49:22.221Z,17.80
2018-04-15T20:51:50.545Z,17.80
2018-04-15T20:54:18.154Z,17.70
2018-04-15T20:56:45.729Z,17.70
2018-04-15T20:59:14.064Z,17.70
2018-04-15T21:01:41.693Z,17.60
2018-04-15T21:04:10.027Z,17.60
2018-04-15T21:06:37.633Z,17.50
2018-04-15T21:09:07.940Z,17.50
2018-04-15T21:11:35.508Z,17.50
2018-04-15T21:14:03.089Z,17.50
2018-04-15T21:16:30.750Z,17.40
2018-04-15T21:18:58.322Z,17.40
2018-04-15T21:21:25.884Z,17.30
2018-04-15T21:23:53.428Z,17.30
2018-04-15T21:26:20.995Z,17.30
2018-04-15T21:28:48.541Z,17.30
2018-04-15T21:31:16.146Z,17.20
2018-04-15T21:33:43.675Z,17.20
2018-04-15T21:36:11.303Z,17.10
2018-04-15T21:38:38.861Z,17.10
2018-04-15T21:41:07.250Z,17.00
2018-04-15T21:43:35.563Z,17.00
2018-04-15T21:46:03.145Z,16.90
2018-04-15T21:48:30.802Z,16.90
2018-04-15T21:50:58.361Z,16.90
2018-04-15T21:53:26.102Z,16.90
2018-04-15T21:55:53.668Z,16.90
2018-04-15T21:58:21.309Z,16.80
2018-04-15T22:00:48.864Z,16.80
2018-04-15T22:03:16.454Z,16.80
2018-04-15T22:05:44.016Z,16.70
2018-04-15T22:08:11.611Z,16.70
2018-04-15T22:10:39.152Z,16.60
2018-04-15T22:13:08.786Z,16.60
2018-04-15T22:15:36.350Z,16.60
2018-04-15T22:18:03.945Z,16.60
2018-04-15T22:20:32.871Z,16.60
2018-04-15T22:23:00.508Z,16.60
2018-04-15T22:25:28.057Z,16.60
2018-04-15T22:27:55.660Z,16.60
2018-04-15T22:30:23.221Z,16.50
2018-04-15T22:32:50.757Z,16.50
2018-04-15T22:35:18.366Z,16.50
2018-04-15T22:37:46.650Z,16.40
2018-04-15T22:40:14.354Z,16.40
2018-04-15T22:42:41.877Z,16.40
2018-04-15T22:45:09.429Z,16.40
2018-04-15T22:47:36.974Z,16.40
2018-04-15T22:50:10.207Z,16.40
2018-04-15T22:52:37.742Z,16.40
2018-04-15T22:55:05.298Z,16.40
2018-04-15T22:57:32.923Z,16.30
2018-04-15T23:00:00.484Z,16.30
2018-04-15T23:02:28.030Z,16.30
2018-04-15T23:04:55.572Z,16.30
2018-04-15T23:07:23.124Z,16.30
2018-04-15T23:09:50.694Z,16.20
2018-04-15T23:12:18.229Z,16.20
2018-04-15T23:14:45.793Z,16.20
2018-04-15T23:17:13.612Z,16.20
2018-04-15T23:19:41.169Z,16.20
2018-04-15T23:22:08.729Z,16.10
2018-04-15T23:24:36.283Z,16.10
2018-04-15T23:27:03.823Z,16.10
2018-04-15T23:29:31.343Z,16.10
2018-04-15T23:31:58.916Z,16.10
2018-04-15T23:34:26.519Z,16.10
2018-04-15T23:36:54.092Z,16.10
2018-04-15T23:39:21.683Z,16.10
2018-04-15T23:41:49.318Z,16.10
2018-04-15T23:44:16.887Z,16.10
2018-04-15T23:46:44.518Z,16.10
2018-04-15T23:49:12.133Z,16.10
2018-04-15T23:51:39.750Z,16.10
2018-04-15T23:54:07.309Z,16.10
2018-04-15T23:56:34.940Z,16.10
2018-04-15T23:59:02.499Z,16.10
